sensor_id;sensor_type;location;lat;lon;timestamp;P1;durP1;ratioP1;P2;durP2;ratioP2
20988;SDS011;10653;47.052;15.410;2022-09-25T00:00:23;11.00;;;9.67;;
20988;SDS011;10653;47.052;15.410;2022-09-25T00:02:49;10.90;;;9.80;;
20988;SDS011;10653;47.052;15.410;2022-09-25T00:05:15;11.87;;;10.67;;
20988;SDS011;10653;47.052;15.410;2022-09-25T00:07:41;11.40;;;10.30;;
20988;SDS011;10653;47.052;15.410;2022-09-25T00:10:07;11.73;;;10.63;;
20988;SDS011;10653;47.052;15.410;2022-09-25T00:12:33;10.50;;;9.50;;
20988;SDS011;10653;47.052;15.410;2022-09-25T00:15:00;9.20;;;8.40;;
20988;SDS011;10653;47.052;15.410;2022-09-25T00:17:26;10.70;;;9.00;;
20988;SDS011;10653;47.052;15.410;2022-09-25T00:19:52;9.57;;;8.57;;
20988;SDS011;10653;47.052;15.410;2022-09-25T00:22:18;9.70;;;8.80;;
20988;SDS011;10653;47.052;15.410;2022-09-25T00:24:45;9.13;;;8.20;;
20988;SDS011;10653;47.052;15.410;2022-09-25T00:27:11;10.53;;;8.73;;
20988;SDS011;10653;47.052;15.410;2022-09-25T00:29:38;9.70;;;8.50;;
20988;SDS011;10653;47.052;15.410;2022-09-25T00:32:04;9.70;;;8.80;;
20988;SDS011;10653;47.052;15.410;2022-09-25T00:34:31;10.17;;;9.17;;
20988;SDS011;10653;47.052;15.410;2022-09-25T00:36:57;9.87;;;8.70;;
20988;SDS011;10653;47.052;15.410;2022-09-25T00:39:23;11.37;;;9.00;;
20988;SDS011;10653;47.052;15.410;2022-09-25T00:41:49;8.60;;;7.90;;
20988;SDS011;10653;47.052;15.410;2022-09-25T00:47:00;8.77;;;7.97;;
20988;SDS011;10653;47.052;15.410;2022-09-25T00:49:27;8.60;;;7.80;;
20988;SDS011;10653;47.052;15.410;2022-09-25T00:54:21;8.73;;;7.83;;
20988;SDS011;10653;47.052;15.410;2022-09-25T00:56:47;8.33;;;7.40;;
20988;SDS011;10653;47.052;15.410;2022-09-25T00:59:17;8.13;;;7.30;;
20988;SDS011;10653;47.052;15.410;2022-09-25T01:01:44;10.20;;;8.23;;
20988;SDS011;10653;47.052;15.410;2022-09-25T01:04:10;9.17;;;8.10;;
20988;SDS011;10653;47.052;15.410;2022-09-25T01:06:37;8.00;;;7.20;;
20988;SDS011;10653;47.052;15.410;2022-09-25T01:09:03;8.83;;;7.93;;
20988;SDS011;10653;47.052;15.410;2022-09-25T01:11:29;9.20;;;8.30;;
20988;SDS011;10653;47.052;15.410;2022-09-25T01:13:56;9.00;;;8.20;;
20988;SDS011;10653;47.052;15.410;2022-09-25T01:19:17;10.30;;;9.30;;
20988;SDS011;10653;47.052;15.410;2022-09-25T01:22:22;9.33;;;8.53;;
20988;SDS011;10653;47.052;15.410;2022-09-25T01:29:48;9.70;;;8.80;;
20988;SDS011;10653;47.052;15.410;2022-09-25T01:32:23;9.40;;;8.50;;
20988;SDS011;10653;47.052;15.410;2022-09-25T01:37:25;10.17;;;9.20;;
20988;SDS011;10653;47.052;15.410;2022-09-25T01:42:42;10.80;;;9.40;;
20988;SDS011;10653;47.052;15.410;2022-09-25T01:45:15;10.53;;;9.53;;
20988;SDS011;10653;47.052;15.410;2022-09-25T01:47:42;10.70;;;9.70;;
20988;SDS011;10653;47.052;15.410;2022-09-25T01:50:31;11.23;;;9.10;;
20988;SDS011;10653;47.052;15.410;2022-09-25T01:53:00;9.83;;;8.83;;
20988;SDS011;10653;47.052;15.410;2022-09-25T02:00:44;8.83;;;7.97;;
20988;SDS011;10653;47.052;15.410;2022-09-25T02:03:16;9.00;;;8.20;;
20988;SDS011;10653;47.052;15.410;2022-09-25T02:05:44;9.03;;;8.23;;
20988;SDS011;10653;47.052;15.410;2022-09-25T02:08:17;8.20;;;7.40;;
20988;SDS011;10653;47.052;15.410;2022-09-25T02:10:47;9.30;;;8.40;;
20988;SDS011;10653;47.052;15.410;2022-09-25T02:13:15;8.47;;;7.67;;
20988;SDS011;10653;47.052;15.410;2022-09-25T02:15:44;9.93;;;8.93;;
20988;SDS011;10653;47.052;15.410;2022-09-25T02:18:11;9.07;;;8.10;;
20988;SDS011;10653;47.052;15.410;2022-09-25T02:21:05;9.13;;;8.33;;
20988;SDS011;10653;47.052;15.410;2022-09-25T02:26:07;8.43;;;7.63;;
20988;SDS011;10653;47.052;15.410;2022-09-25T02:28:38;11.70;;;10.03;;
20988;SDS011;10653;47.052;15.410;2022-09-25T02:31:06;9.80;;;9.00;;
20988;SDS011;10653;47.052;15.410;2022-09-25T02:33:33;9.57;;;8.67;;
20988;SDS011;10653;47.052;15.410;2022-09-25T02:35:59;9.87;;;8.87;;
20988;SDS011;10653;47.052;15.410;2022-09-25T02:38:26;10.00;;;9.00;;
20988;SDS011;10653;47.052;15.410;2022-09-25T02:58:58;10.23;;;9.23;;
20988;SDS011;10653;47.052;15.410;2022-09-25T03:01:26;9.77;;;8.87;;
20988;SDS011;10653;47.052;15.410;2022-09-25T03:03:54;9.80;;;8.83;;
20988;SDS011;10653;47.052;15.410;2022-09-25T03:06:21;10.07;;;9.17;;
20988;SDS011;10653;47.052;15.410;2022-09-25T03:08:48;9.60;;;8.80;;
20988;SDS011;10653;47.052;15.410;2022-09-25T03:11:17;9.67;;;8.77;;
20988;SDS011;10653;47.052;15.410;2022-09-25T03:13:44;8.63;;;7.83;;
20988;SDS011;10653;47.052;15.410;2022-09-25T03:16:15;9.60;;;8.70;;
20988;SDS011;10653;47.052;15.410;2022-09-25T03:18:44;8.50;;;7.80;;
20988;SDS011;10653;47.052;15.410;2022-09-25T03:21:10;10.30;;;9.30;;
20988;SDS011;10653;47.052;15.410;2022-09-25T03:23:36;10.30;;;9.20;;
20988;SDS011;10653;47.052;15.410;2022-09-25T03:26:02;9.77;;;8.87;;
20988;SDS011;10653;47.052;15.410;2022-09-25T03:28:28;13.13;;;9.30;;
20988;SDS011;10653;47.052;15.410;2022-09-25T03:30:55;9.93;;;9.03;;
20988;SDS011;10653;47.052;15.410;2022-09-25T03:33:22;10.63;;;9.63;;
20988;SDS011;10653;47.052;15.410;2022-09-25T03:35:48;10.40;;;9.30;;
20988;SDS011;10653;47.052;15.410;2022-09-25T03:38:24;10.33;;;9.33;;
20988;SDS011;10653;47.052;15.410;2022-09-25T03:40:50;10.43;;;9.43;;
20988;SDS011;10653;47.052;15.410;2022-09-25T03:43:16;9.80;;;9.00;;
20988;SDS011;10653;47.052;15.410;2022-09-25T03:45:42;10.20;;;9.20;;
20988;SDS011;10653;47.052;15.410;2022-09-25T03:48:08;10.50;;;9.50;;
20988;SDS011;10653;47.052;15.410;2022-09-25T03:50:34;10.90;;;8.73;;
20988;SDS011;10653;47.052;15.410;2022-09-25T03:53:00;9.87;;;8.87;;
20988;SDS011;10653;47.052;15.410;2022-09-25T03:55:26;9.87;;;8.87;;
20988;SDS011;10653;47.052;15.410;2022-09-25T03:57:52;10.43;;;9.37;;
20988;SDS011;10653;47.052;15.410;2022-09-25T04:00:18;9.17;;;8.07;;
20988;SDS011;10653;47.052;15.410;2022-09-25T04:02:44;8.97;;;8.07;;
20988;SDS011;10653;47.052;15.410;2022-09-25T04:05:10;9.53;;;8.60;;
20988;SDS011;10653;47.052;15.410;2022-09-25T04:07:36;9.80;;;8.97;;
20988;SDS011;10653;47.052;15.410;2022-09-25T04:10:02;10.00;;;9.07;;
20988;SDS011;10653;47.052;15.410;2022-09-25T04:12:28;9.10;;;8.20;;
20988;SDS011;10653;47.052;15.410;2022-09-25T04:14:54;9.83;;;8.50;;
20988;SDS011;10653;47.052;15.410;2022-09-25T04:17:20;8.43;;;7.63;;
20988;SDS011;10653;47.052;15.410;2022-09-25T04:19:46;9.30;;;8.50;;
20988;SDS011;10653;47.052;15.410;2022-09-25T04:22:13;8.97;;;8.17;;
20988;SDS011;10653;47.052;15.410;2022-09-25T04:24:39;9.67;;;8.87;;
20988;SDS011;10653;47.052;15.410;2022-09-25T04:27:18;10.80;;;8.40;;
20988;SDS011;10653;47.052;15.410;2022-09-25T04:29:45;8.10;;;7.30;;
20988;SDS011;10653;47.052;15.410;2022-09-25T04:32:11;8.93;;;8.13;;
20988;SDS011;10653;47.052;15.410;2022-09-25T04:34:56;9.30;;;8.37;;
20988;SDS011;10653;47.052;15.410;2022-09-25T04:37:22;8.73;;;7.83;;
20988;SDS011;10653;47.052;15.410;2022-09-25T04:39:50;9.27;;;8.20;;
20988;SDS011;10653;47.052;15.410;2022-09-25T04:42:16;7.77;;;7.07;;
20988;SDS011;10653;47.052;15.410;2022-09-25T04:44:42;8.63;;;7.90;;
20988;SDS011;10653;47.052;15.410;2022-09-25T04:47:08;9.03;;;8.30;;
20988;SDS011;10653;47.052;15.410;2022-09-25T04:49:34;8.03;;;7.23;;
20988;SDS011;10653;47.052;15.410;2022-09-25T04:52:02;9.57;;;8.67;;
20988;SDS011;10653;47.052;15.410;2022-09-25T04:54:28;8.90;;;8.10;;
20988;SDS011;10653;47.052;15.410;2022-09-25T04:56:54;10.73;;;8.83;;
20988;SDS011;10653;47.052;15.410;2022-09-25T04:59:21;8.60;;;7.80;;
20988;SDS011;10653;47.052;15.410;2022-09-25T05:01:47;9.50;;;8.70;;
20988;SDS011;10653;47.052;15.410;2022-09-25T05:04:13;8.90;;;8.10;;
20988;SDS011;10653;47.052;15.410;2022-09-25T05:06:40;10.10;;;9.10;;
20988;SDS011;10653;47.052;15.410;2022-09-25T05:09:06;8.93;;;8.23;;
20988;SDS011;10653;47.052;15.410;2022-09-25T05:11:32;9.40;;;8.17;;
20988;SDS011;10653;47.052;15.410;2022-09-25T05:13:58;10.93;;;10.00;;
20988;SDS011;10653;47.052;15.410;2022-09-25T05:16:25;9.63;;;8.83;;
20988;SDS011;10653;47.052;15.410;2022-09-25T05:18:52;9.93;;;9.00;;
20988;SDS011;10653;47.052;15.410;2022-09-25T05:21:18;9.30;;;8.40;;
20988;SDS011;10653;47.052;15.410;2022-09-25T05:23:44;10.40;;;9.50;;
20988;SDS011;10653;47.052;15.410;2022-09-25T05:26:10;8.83;;;8.03;;
20988;SDS011;10653;47.052;15.410;2022-09-25T05:28:37;9.00;;;8.10;;
20988;SDS011;10653;47.052;15.410;2022-09-25T05:31:03;9.10;;;8.17;;
20988;SDS011;10653;47.052;15.410;2022-09-25T05:33:30;8.97;;;8.17;;
20988;SDS011;10653;47.052;15.410;2022-09-25T05:36:00;11.80;;;8.67;;
20988;SDS011;10653;47.052;15.410;2022-09-25T05:38:26;10.20;;;8.30;;
20988;SDS011;10653;47.052;15.410;2022-09-25T05:40:53;9.10;;;8.20;;
20988;SDS011;10653;47.052;15.410;2022-09-25T05:43:20;9.23;;;8.33;;
20988;SDS011;10653;47.052;15.410;2022-09-25T05:45:55;9.00;;;8.20;;
20988;SDS011;10653;47.052;15.410;2022-09-25T05:48:21;11.53;;;10.43;;
20988;SDS011;10653;47.052;15.410;2022-09-25T05:50:51;13.90;;;11.77;;
20988;SDS011;10653;47.052;15.410;2022-09-25T05:53:17;9.50;;;8.50;;
20988;SDS011;10653;47.052;15.410;2022-09-25T05:55:53;10.83;;;9.83;;
20988;SDS011;10653;47.052;15.410;2022-09-25T05:58:19;9.20;;;8.30;;
20988;SDS011;10653;47.052;15.410;2022-09-25T06:00:46;8.73;;;7.93;;
20988;SDS011;10653;47.052;15.410;2022-09-25T06:03:12;9.10;;;8.20;;
20988;SDS011;10653;47.052;15.410;2022-09-25T06:05:38;9.50;;;8.63;;
20988;SDS011;10653;47.052;15.410;2022-09-25T06:08:05;8.20;;;7.43;;
20988;SDS011;10653;47.052;15.410;2022-09-25T06:10:31;8.43;;;7.57;;
20988;SDS011;10653;47.052;15.410;2022-09-25T06:12:58;11.47;;;8.00;;
20988;SDS011;10653;47.052;15.410;2022-09-25T06:15:28;8.37;;;7.53;;
20988;SDS011;10653;47.052;15.410;2022-09-25T06:17:54;8.33;;;7.57;;
20988;SDS011;10653;47.052;15.410;2022-09-25T06:20:21;8.37;;;7.47;;
20988;SDS011;10653;47.052;15.410;2022-09-25T06:22:50;8.10;;;7.40;;
20988;SDS011;10653;47.052;15.410;2022-09-25T06:25:16;8.90;;;8.10;;
20988;SDS011;10653;47.052;15.410;2022-09-25T06:27:43;9.07;;;8.17;;
20988;SDS011;10653;47.052;15.410;2022-09-25T06:30:09;9.07;;;8.20;;
20988;SDS011;10653;47.052;15.410;2022-09-25T06:32:35;8.47;;;7.67;;
20988;SDS011;10653;47.052;15.410;2022-09-25T06:35:02;11.10;;;8.37;;
20988;SDS011;10653;47.052;15.410;2022-09-25T06:37:28;9.00;;;8.10;;
20988;SDS011;10653;47.052;15.410;2022-09-25T06:39:54;9.10;;;8.30;;
20988;SDS011;10653;47.052;15.410;2022-09-25T06:42:20;8.80;;;8.00;;
20988;SDS011;10653;47.052;15.410;2022-09-25T06:44:47;8.80;;;7.90;;
20988;SDS011;10653;47.052;15.410;2022-09-25T06:47:13;8.70;;;7.80;;
20988;SDS011;10653;47.052;15.410;2022-09-25T06:49:39;9.57;;;8.57;;
20988;SDS011;10653;47.052;15.410;2022-09-25T06:52:05;9.87;;;8.97;;
20988;SDS011;10653;47.052;15.410;2022-09-25T06:54:31;9.00;;;8.20;;
20988;SDS011;10653;47.052;15.410;2022-09-25T06:56:57;10.90;;;9.77;;
20988;SDS011;10653;47.052;15.410;2022-09-25T06:59:23;9.53;;;8.50;;
20988;SDS011;10653;47.052;15.410;2022-09-25T07:01:50;9.80;;;8.80;;
20988;SDS011;10653;47.052;15.410;2022-09-25T07:04:16;9.07;;;8.17;;
20988;SDS011;10653;47.052;15.410;2022-09-25T07:06:42;10.20;;;9.20;;
20988;SDS011;10653;47.052;15.410;2022-09-25T07:09:09;10.17;;;9.07;;
20988;SDS011;10653;47.052;15.410;2022-09-25T07:11:35;10.00;;;9.00;;
20988;SDS011;10653;47.052;15.410;2022-09-25T07:14:01;9.77;;;8.87;;
20988;SDS011;10653;47.052;15.410;2022-09-25T07:16:28;10.90;;;9.67;;
20988;SDS011;10653;47.052;15.410;2022-09-25T07:18:55;9.40;;;8.10;;
20988;SDS011;10653;47.052;15.410;2022-09-25T07:21:22;9.50;;;8.50;;
20988;SDS011;10653;47.052;15.410;2022-09-25T07:23:50;8.67;;;7.87;;
20988;SDS011;10653;47.052;15.410;2022-09-25T07:26:20;10.70;;;9.60;;
20988;SDS011;10653;47.052;15.410;2022-09-25T07:28:47;9.73;;;8.73;;
20988;SDS011;10653;47.052;15.410;2022-09-25T07:31:15;9.57;;;8.67;;
20988;SDS011;10653;47.052;15.410;2022-09-25T07:33:42;11.23;;;9.60;;
20988;SDS011;10653;47.052;15.410;2022-09-25T07:36:08;12.73;;;9.70;;
20988;SDS011;10653;47.052;15.410;2022-09-25T07:38:34;11.63;;;10.50;;
20988;SDS011;10653;47.052;15.410;2022-09-25T07:41:04;10.17;;;9.20;;
20988;SDS011;10653;47.052;15.410;2022-09-25T07:43:31;10.20;;;9.30;;
20988;SDS011;10653;47.052;15.410;2022-09-25T07:45:57;11.70;;;9.17;;
20988;SDS011;10653;47.052;15.410;2022-09-25T07:48:23;10.67;;;9.70;;
20988;SDS011;10653;47.052;15.410;2022-09-25T07:50:50;10.60;;;9.70;;
20988;SDS011;10653;47.052;15.410;2022-09-25T07:53:16;10.60;;;9.60;;
20988;SDS011;10653;47.052;15.410;2022-09-25T07:55:43;13.97;;;10.70;;
20988;SDS011;10653;47.052;15.410;2022-09-25T07:58:09;13.53;;;10.20;;
20988;SDS011;10653;47.052;15.410;2022-09-25T08:00:36;9.83;;;8.93;;
20988;SDS011;10653;47.052;15.410;2022-09-25T08:03:02;11.00;;;9.90;;
20988;SDS011;10653;47.052;15.410;2022-09-25T08:05:28;10.77;;;9.77;;
20988;SDS011;10653;47.052;15.410;2022-09-25T08:07:54;16.13;;;10.50;;
20988;SDS011;10653;47.052;15.410;2022-09-25T08:10:20;11.23;;;10.03;;
20988;SDS011;10653;47.052;15.410;2022-09-25T08:12:46;10.70;;;9.60;;
20988;SDS011;10653;47.052;15.410;2022-09-25T08:15:12;12.23;;;11.03;;
20988;SDS011;10653;47.052;15.410;2022-09-25T08:17:39;12.53;;;11.23;;
20988;SDS011;10653;47.052;15.410;2022-09-25T08:20:05;13.03;;;11.83;;
20988;SDS011;10653;47.052;15.410;2022-09-25T08:22:32;12.07;;;10.80;;
20988;SDS011;10653;47.052;15.410;2022-09-25T08:24:58;12.87;;;10.60;;
20988;SDS011;10653;47.052;15.410;2022-09-25T08:27:27;12.43;;;11.23;;
20988;SDS011;10653;47.052;15.410;2022-09-25T08:29:53;14.70;;;12.97;;
20988;SDS011;10653;47.052;15.410;2022-09-25T08:32:19;13.43;;;12.17;;
20988;SDS011;10653;47.052;15.410;2022-09-25T08:34:45;14.17;;;12.67;;
20988;SDS011;10653;47.052;15.410;2022-09-25T08:37:13;15.00;;;13.60;;
20988;SDS011;10653;47.052;15.410;2022-09-25T08:39:40;13.10;;;11.80;;
20988;SDS011;10653;47.052;15.410;2022-09-25T08:42:08;13.70;;;12.43;;
20988;SDS011;10653;47.052;15.410;2022-09-25T08:44:39;14.23;;;12.73;;
20988;SDS011;10653;47.052;15.410;2022-09-25T08:47:22;13.40;;;12.10;;
20988;SDS011;10653;47.052;15.410;2022-09-25T08:50:11;12.40;;;11.20;;
20988;SDS011;10653;47.052;15.410;2022-09-25T08:52:39;12.17;;;11.07;;
20988;SDS011;10653;47.052;15.410;2022-09-25T08:58:23;12.87;;;11.70;;
20988;SDS011;10653;47.052;15.410;2022-09-25T09:00:52;14.80;;;12.80;;
20988;SDS011;10653;47.052;15.410;2022-09-25T09:03:18;12.50;;;11.40;;
20988;SDS011;10653;47.052;15.410;2022-09-25T09:05:45;12.67;;;11.47;;
20988;SDS011;10653;47.052;15.410;2022-09-25T09:08:14;11.70;;;10.50;;
20988;SDS011;10653;47.052;15.410;2022-09-25T09:10:42;12.90;;;11.70;;
20988;SDS011;10653;47.052;15.410;2022-09-25T09:15:55;13.10;;;11.80;;
20988;SDS011;10653;47.052;15.410;2022-09-25T09:23:18;13.67;;;12.43;;
20988;SDS011;10653;47.052;15.410;2022-09-25T09:36:12;16.50;;;14.97;;
20988;SDS011;10653;47.052;15.410;2022-09-25T09:41:37;15.03;;;13.63;;
20988;SDS011;10653;47.052;15.410;2022-09-25T09:51:35;11.50;;;10.40;;
20988;SDS011;10653;47.052;15.410;2022-09-25T09:54:14;12.23;;;11.13;;
20988;SDS011;10653;47.052;15.410;2022-09-25T09:56:43;12.57;;;11.30;;
20988;SDS011;10653;47.052;15.410;2022-09-25T09:59:13;12.60;;;11.40;;
20988;SDS011;10653;47.052;15.410;2022-09-25T10:01:41;14.10;;;12.80;;
20988;SDS011;10653;47.052;15.410;2022-09-25T10:04:16;13.43;;;12.30;;
20988;SDS011;10653;47.052;15.410;2022-09-25T10:06:44;14.53;;;13.13;;
20988;SDS011;10653;47.052;15.410;2022-09-25T10:09:13;12.50;;;11.20;;
20988;SDS011;10653;47.052;15.410;2022-09-25T10:11:39;13.27;;;12.00;;
20988;SDS011;10653;47.052;15.410;2022-09-25T10:14:08;15.87;;;14.37;;
20988;SDS011;10653;47.052;15.410;2022-09-25T10:16:36;12.63;;;11.43;;
20988;SDS011;10653;47.052;15.410;2022-09-25T10:21:39;11.00;;;9.90;;
20988;SDS011;10653;47.052;15.410;2022-09-25T10:24:05;12.30;;;11.20;;
20988;SDS011;10653;47.052;15.410;2022-09-25T10:26:32;12.20;;;11.10;;
20988;SDS011;10653;47.052;15.410;2022-09-25T10:29:24;12.00;;;10.90;;
20988;SDS011;10653;47.052;15.410;2022-09-25T10:31:50;11.80;;;10.53;;
20988;SDS011;10653;47.052;15.410;2022-09-25T10:34:21;11.40;;;10.40;;
20988;SDS011;10653;47.052;15.410;2022-09-25T10:36:49;10.13;;;9.13;;
20988;SDS011;10653;47.052;15.410;2022-09-25T10:39:29;9.93;;;9.03;;
20988;SDS011;10653;47.052;15.410;2022-09-25T10:41:55;9.07;;;8.17;;
20988;SDS011;10653;47.052;15.410;2022-09-25T10:44:33;11.03;;;9.53;;
20988;SDS011;10653;47.052;15.410;2022-09-25T10:50:17;10.33;;;9.23;;
20988;SDS011;10653;47.052;15.410;2022-09-25T10:57:51;8.70;;;7.97;;
20988;SDS011;10653;47.052;15.410;2022-09-25T11:00:20;9.70;;;8.80;;
20988;SDS011;10653;47.052;15.410;2022-09-25T11:02:46;11.20;;;9.30;;
20988;SDS011;10653;47.052;15.410;2022-09-25T11:05:17;8.50;;;7.77;;
20988;SDS011;10653;47.052;15.410;2022-09-25T11:07:46;8.00;;;7.20;;
20988;SDS011;10653;47.052;15.410;2022-09-25T11:10:19;8.20;;;7.50;;
20988;SDS011;10653;47.052;15.410;2022-09-25T11:12:45;7.40;;;6.80;;
20988;SDS011;10653;47.052;15.410;2022-09-25T11:15:15;8.30;;;7.50;;
20988;SDS011;10653;47.052;15.410;2022-09-25T11:17:42;8.67;;;7.87;;
20988;SDS011;10653;47.052;15.410;2022-09-25T11:22:43;6.83;;;6.23;;
20988;SDS011;10653;47.052;15.410;2022-09-25T11:27:42;7.43;;;6.70;;
20988;SDS011;10653;47.052;15.410;2022-09-25T11:30:11;7.03;;;6.43;;
20988;SDS011;10653;47.052;15.410;2022-09-25T11:40:38;6.80;;;5.60;;
20988;SDS011;10653;47.052;15.410;2022-09-25T11:43:34;6.17;;;5.67;;
20988;SDS011;10653;47.052;15.410;2022-09-25T11:46:11;5.90;;;5.40;;
20988;SDS011;10653;47.052;15.410;2022-09-25T11:54:08;6.43;;;5.77;;
20988;SDS011;10653;47.052;15.410;2022-09-25T11:56:44;6.23;;;5.73;;
20988;SDS011;10653;47.052;15.410;2022-09-25T11:59:23;6.43;;;5.83;;
20988;SDS011;10653;47.052;15.410;2022-09-25T12:07:29;7.63;;;6.90;;
20988;SDS011;10653;47.052;15.410;2022-09-25T12:35:56;6.43;;;5.90;;
20988;SDS011;10653;47.052;15.410;2022-09-25T12:38:25;5.83;;;5.33;;
20988;SDS011;10653;47.052;15.410;2022-09-25T12:43:21;6.90;;;6.30;;
20988;SDS011;10653;47.052;15.410;2022-09-25T12:46:05;5.70;;;5.20;;
20988;SDS011;10653;47.052;15.410;2022-09-25T12:48:35;6.67;;;5.97;;
20988;SDS011;10653;47.052;15.410;2022-09-25T12:51:05;6.43;;;5.83;;
20988;SDS011;10653;47.052;15.410;2022-09-25T12:53:38;7.07;;;6.47;;
20988;SDS011;10653;47.052;15.410;2022-09-25T12:56:11;6.53;;;5.97;;
20988;SDS011;10653;47.052;15.410;2022-09-25T13:01:18;8.87;;;6.23;;
20988;SDS011;10653;47.052;15.410;2022-09-25T13:06:16;6.57;;;5.97;;
20988;SDS011;10653;47.052;15.410;2022-09-25T13:08:46;6.07;;;5.57;;
20988;SDS011;10653;47.052;15.410;2022-09-25T13:11:21;6.50;;;5.90;;
20988;SDS011;10653;47.052;15.410;2022-09-25T13:13:50;6.83;;;5.90;;
20988;SDS011;10653;47.052;15.410;2022-09-25T13:16:18;7.30;;;6.60;;
20988;SDS011;10653;47.052;15.410;2022-09-25T13:18:47;6.10;;;5.07;;
20988;SDS011;10653;47.052;15.410;2022-09-25T13:21:30;5.93;;;5.30;;
20988;SDS011;10653;47.052;15.410;2022-09-25T13:23:56;6.63;;;5.83;;
20988;SDS011;10653;47.052;15.410;2022-09-25T13:26:24;7.00;;;5.60;;
20988;SDS011;10653;47.052;15.410;2022-09-25T13:31:22;7.10;;;5.60;;
20988;SDS011;10653;47.052;15.410;2022-09-25T13:33:50;6.50;;;5.73;;
20988;SDS011;10653;47.052;15.410;2022-09-25T13:38:48;6.40;;;5.80;;
20988;SDS011;10653;47.052;15.410;2022-09-25T13:41:34;4.67;;;4.27;;
20988;SDS011;10653;47.052;15.410;2022-09-25T13:46:45;5.27;;;4.87;;
20988;SDS011;10653;47.052;15.410;2022-09-25T13:52:27;4.33;;;4.00;;
20988;SDS011;10653;47.052;15.410;2022-09-25T13:55:07;4.87;;;4.47;;
20988;SDS011;10653;47.052;15.410;2022-09-25T13:58:00;5.07;;;4.60;;
20988;SDS011;10653;47.052;15.410;2022-09-25T14:02:52;5.60;;;5.10;;
20988;SDS011;10653;47.052;15.410;2022-09-25T14:05:25;5.00;;;4.60;;
20988;SDS011;10653;47.052;15.410;2022-09-25T14:07:59;4.10;;;3.77;;
20988;SDS011;10653;47.052;15.410;2022-09-25T14:10:25;4.00;;;3.60;;
20988;SDS011;10653;47.052;15.410;2022-09-25T14:12:52;4.20;;;3.90;;
20988;SDS011;10653;47.052;15.410;2022-09-25T14:17:55;3.50;;;3.20;;
20988;SDS011;10653;47.052;15.410;2022-09-25T14:20:32;4.80;;;4.00;;
20988;SDS011;10653;47.052;15.410;2022-09-25T14:23:10;3.13;;;2.90;;
20988;SDS011;10653;47.052;15.410;2022-09-25T14:25:37;3.33;;;3.10;;
20988;SDS011;10653;47.052;15.410;2022-09-25T14:28:14;3.43;;;3.13;;
20988;SDS011;10653;47.052;15.410;2022-09-25T14:30:54;5.30;;;3.37;;
20988;SDS011;10653;47.052;15.410;2022-09-25T14:38:38;2.60;;;2.23;;
20988;SDS011;10653;47.052;15.410;2022-09-25T14:43:43;3.10;;;2.80;;
20988;SDS011;10653;47.052;15.410;2022-09-25T14:46:13;3.57;;;3.07;;
20988;SDS011;10653;47.052;15.410;2022-09-25T14:48:46;3.80;;;2.90;;
20988;SDS011;10653;47.052;15.410;2022-09-25T14:51:14;2.87;;;2.67;;
20988;SDS011;10653;47.052;15.410;2022-09-25T14:53:50;3.43;;;2.47;;
20988;SDS011;10653;47.052;15.410;2022-09-25T14:56:18;3.23;;;2.93;;
20988;SDS011;10653;47.052;15.410;2022-09-25T14:58:48;2.70;;;2.50;;
20988;SDS011;10653;47.052;15.410;2022-09-25T15:01:32;4.77;;;3.23;;
20988;SDS011;10653;47.052;15.410;2022-09-25T15:04:03;3.00;;;2.80;;
20988;SDS011;10653;47.052;15.410;2022-09-25T15:06:30;2.73;;;2.53;;
20988;SDS011;10653;47.052;15.410;2022-09-25T15:08:56;2.47;;;2.30;;
20988;SDS011;10653;47.052;15.410;2022-09-25T15:11:25;2.90;;;2.70;;
20988;SDS011;10653;47.052;15.410;2022-09-25T15:13:51;2.77;;;2.50;;
20988;SDS011;10653;47.052;15.410;2022-09-25T15:16:19;2.70;;;2.50;;
20988;SDS011;10653;47.052;15.410;2022-09-25T15:19:21;2.70;;;2.50;;
20988;SDS011;10653;47.052;15.410;2022-09-25T15:21:49;3.03;;;2.77;;
20988;SDS011;10653;47.052;15.410;2022-09-25T15:24:17;4.80;;;3.87;;
20988;SDS011;10653;47.052;15.410;2022-09-25T15:26:48;3.03;;;2.67;;
20988;SDS011;10653;47.052;15.410;2022-09-25T15:29:15;3.00;;;2.70;;
20988;SDS011;10653;47.052;15.410;2022-09-25T15:31:42;2.37;;;2.17;;
20988;SDS011;10653;47.052;15.410;2022-09-25T15:34:14;2.33;;;2.20;;
20988;SDS011;10653;47.052;15.410;2022-09-25T15:36:44;2.40;;;2.20;;
20988;SDS011;10653;47.052;15.410;2022-09-25T15:39:15;3.33;;;3.07;;
20988;SDS011;10653;47.052;15.410;2022-09-25T15:41:42;3.80;;;2.57;;
20988;SDS011;10653;47.052;15.410;2022-09-25T15:44:18;2.67;;;2.47;;
20988;SDS011;10653;47.052;15.410;2022-09-25T15:46:52;3.00;;;2.70;;
20988;SDS011;10653;47.052;15.410;2022-09-25T15:50:00;2.43;;;2.23;;
20988;SDS011;10653;47.052;15.410;2022-09-25T15:52:21;2.90;;;2.70;;
20988;SDS011;10653;47.052;15.410;2022-09-25T15:54:47;3.87;;;3.47;;
20988;SDS011;10653;47.052;15.410;2022-09-25T15:57:15;3.27;;;2.97;;
20988;SDS011;10653;47.052;15.410;2022-09-25T15:59:48;4.50;;;4.03;;
20988;SDS011;10653;47.052;15.410;2022-09-25T16:02:41;4.83;;;4.33;;
20988;SDS011;10653;47.052;15.410;2022-09-25T16:05:32;8.13;;;7.33;;
20988;SDS011;10653;47.052;15.410;2022-09-25T16:10:40;8.33;;;7.17;;
20988;SDS011;10653;47.052;15.410;2022-09-25T16:13:17;6.97;;;6.37;;
20988;SDS011;10653;47.052;15.410;2022-09-25T16:15:44;7.00;;;6.40;;
20988;SDS011;10653;47.052;15.410;2022-09-25T16:23:32;5.83;;;5.33;;
20988;SDS011;10653;47.052;15.410;2022-09-25T16:25:58;5.70;;;5.27;;
20988;SDS011;10653;47.052;15.410;2022-09-25T16:28:26;5.83;;;5.33;;
20988;SDS011;10653;47.052;15.410;2022-09-25T16:31:01;5.50;;;4.97;;
20988;SDS011;10653;47.052;15.410;2022-09-25T16:36:01;6.33;;;5.60;;
20988;SDS011;10653;47.052;15.410;2022-09-25T16:38:29;5.97;;;5.47;;
20988;SDS011;10653;47.052;15.410;2022-09-25T16:43:34;5.13;;;4.73;;
20988;SDS011;10653;47.052;15.410;2022-09-25T16:48:57;5.73;;;5.23;;
20988;SDS011;10653;47.052;15.410;2022-09-25T16:51:24;4.67;;;4.30;;
20988;SDS011;10653;47.052;15.410;2022-09-25T16:53:50;5.10;;;4.70;;
20988;SDS011;10653;47.052;15.410;2022-09-25T16:56:20;5.67;;;5.17;;
20988;SDS011;10653;47.052;15.410;2022-09-25T16:58:46;6.57;;;5.83;;
20988;SDS011;10653;47.052;15.410;2022-09-25T17:01:13;6.67;;;6.07;;
20988;SDS011;10653;47.052;15.410;2022-09-25T17:03:39;6.63;;;6.03;;
20988;SDS011;10653;47.052;15.410;2022-09-25T17:06:21;6.80;;;6.20;;
20988;SDS011;10653;47.052;15.410;2022-09-25T17:08:48;7.63;;;6.93;;
20988;SDS011;10653;47.052;15.410;2022-09-25T17:11:14;7.13;;;6.57;;
20988;SDS011;10653;47.052;15.410;2022-09-25T17:13:41;7.00;;;6.37;;
20988;SDS011;10653;47.052;15.410;2022-09-25T17:16:08;9.50;;;7.20;;
20988;SDS011;10653;47.052;15.410;2022-09-25T17:18:34;6.40;;;5.83;;
20988;SDS011;10653;47.052;15.410;2022-09-25T17:21:02;6.80;;;6.10;;
20988;SDS011;10653;47.052;15.410;2022-09-25T17:23:28;8.20;;;7.30;;
20988;SDS011;10653;47.052;15.410;2022-09-25T17:25:57;7.10;;;6.20;;
20988;SDS011;10653;47.052;15.410;2022-09-25T17:28:25;7.27;;;6.57;;
20988;SDS011;10653;47.052;15.410;2022-09-25T17:30:51;8.70;;;7.63;;
20988;SDS011;10653;47.052;15.410;2022-09-25T17:33:18;8.47;;;7.63;;
20988;SDS011;10653;47.052;15.410;2022-09-25T17:38:16;8.00;;;7.20;;
20988;SDS011;10653;47.052;15.410;2022-09-25T17:40:43;7.00;;;6.40;;
20988;SDS011;10653;47.052;15.410;2022-09-25T17:43:10;9.17;;;7.57;;
20988;SDS011;10653;47.052;15.410;2022-09-25T17:48:12;7.17;;;6.57;;